sensor_id;sensor_type;location;lat;lon;timestamp;P1;durP1;ratioP1;P2;durP2;ratioP2
64065;SDS011;50318;54.760;9.408;2022-08-18T00:02:22;190.47;;;86.20;;
64065;SDS011;50318;54.760;9.408;2022-08-18T00:04:50;198.65;;;86.88;;
64065;SDS011;50318;54.760;9.408;2022-08-18T00:07:18;183.23;;;84.60;;
64065;SDS011;50318;54.760;9.408;2022-08-18T00:09:50;191.82;;;85.57;;
64065;SDS011;50318;54.760;9.408;2022-08-18T00:12:21;198.23;;;86.30;;
64065;SDS011;50318;54.760;9.408;2022-08-18T00:14:49;198.77;;;84.35;;
64065;SDS011;50318;54.760;9.408;2022-08-18T00:17:16;199.00;;;86.13;;
64065;SDS011;50318;54.760;9.408;2022-08-18T00:19:42;203.30;;;86.83;;
64065;SDS011;50318;54.760;9.408;2022-08-18T00:22:08;187.63;;;81.97;;
64065;SDS011;50318;54.760;9.408;2022-08-18T00:24:35;184.25;;;82.03;;
64065;SDS011;50318;54.760;9.408;2022-08-18T00:27:03;179.88;;;79.78;;
64065;SDS011;50318;54.760;9.408;2022-08-18T00:29:30;181.93;;;80.13;;
64065;SDS011;50318;54.760;9.408;2022-08-18T00:31:56;170.93;;;77.70;;
64065;SDS011;50318;54.760;9.408;2022-08-18T00:34:22;156.70;;;73.67;;
64065;SDS011;50318;54.760;9.408;2022-08-18T00:36:48;138.80;;;68.17;;
64065;SDS011;50318;54.760;9.408;2022-08-18T00:39:14;139.30;;;66.75;;
64065;SDS011;50318;54.760;9.408;2022-08-18T00:41:41;101.60;;;54.00;;
64065;SDS011;50318;54.760;9.408;2022-08-18T00:44:07;106.93;;;53.58;;
64065;SDS011;50318;54.760;9.408;2022-08-18T00:46:34;92.75;;;49.20;;
64065;SDS011;50318;54.760;9.408;2022-08-18T00:49:02;79.78;;;43.92;;
64065;SDS011;50318;54.760;9.408;2022-08-18T00:51:32;70.03;;;38.65;;
64065;SDS011;50318;54.760;9.408;2022-08-18T00:56:43;53.47;;;31.38;;
64065;SDS011;50318;54.760;9.408;2022-08-18T01:02:10;45.47;;;27.42;;
64065;SDS011;50318;54.760;9.408;2022-08-18T01:04:51;47.00;;;27.95;;
64065;SDS011;50318;54.760;9.408;2022-08-18T01:07:27;49.80;;;28.05;;
64065;SDS011;50318;54.760;9.408;2022-08-18T01:09:57;45.70;;;26.45;;
64065;SDS011;50318;54.760;9.408;2022-08-18T01:12:28;35.25;;;21.15;;
64065;SDS011;50318;54.760;9.408;2022-08-18T01:14:53;31.53;;;20.73;;
64065;SDS011;50318;54.760;9.408;2022-08-18T01:17:20;31.80;;;19.77;;
64065;SDS011;50318;54.760;9.408;2022-08-18T01:20:06;25.95;;;16.77;;
64065;SDS011;50318;54.760;9.408;2022-08-18T01:22:57;26.40;;;16.57;;
64065;SDS011;50318;54.760;9.408;2022-08-18T01:25:27;24.57;;;16.37;;
64065;SDS011;50318;54.760;9.408;2022-08-18T01:28:11;25.95;;;15.80;;
64065;SDS011;50318;54.760;9.408;2022-08-18T01:30:44;24.02;;;15.70;;
64065;SDS011;50318;54.760;9.408;2022-08-18T01:33:16;24.20;;;15.80;;
64065;SDS011;50318;54.760;9.408;2022-08-18T01:35:43;26.35;;;15.40;;
64065;SDS011;50318;54.760;9.408;2022-08-18T01:38:17;26.35;;;15.77;;
64065;SDS011;50318;54.760;9.408;2022-08-18T01:40:47;25.27;;;15.63;;
64065;SDS011;50318;54.760;9.408;2022-08-18T01:43:19;26.40;;;16.17;;
64065;SDS011;50318;54.760;9.408;2022-08-18T01:45:45;30.20;;;17.10;;
64065;SDS011;50318;54.760;9.408;2022-08-18T01:48:11;26.20;;;16.77;;
64065;SDS011;50318;54.760;9.408;2022-08-18T01:50:38;29.48;;;18.23;;
64065;SDS011;50318;54.760;9.408;2022-08-18T01:53:07;28.42;;;19.33;;
64065;SDS011;50318;54.760;9.408;2022-08-18T01:55:36;28.95;;;19.42;;
64065;SDS011;50318;54.760;9.408;2022-08-18T01:58:04;27.63;;;20.17;;
64065;SDS011;50318;54.760;9.408;2022-08-18T02:00:31;32.78;;;21.63;;
64065;SDS011;50318;54.760;9.408;2022-08-18T02:02:57;38.13;;;24.87;;
64065;SDS011;50318;54.760;9.408;2022-08-18T02:05:31;37.53;;;25.65;;
64065;SDS011;50318;54.760;9.408;2022-08-18T02:08:11;42.05;;;27.38;;
64065;SDS011;50318;54.760;9.408;2022-08-18T02:10:37;46.38;;;29.10;;
64065;SDS011;50318;54.760;9.408;2022-08-18T02:13:04;44.70;;;29.58;;
64065;SDS011;50318;54.760;9.408;2022-08-18T02:15:30;49.47;;;32.42;;
64065;SDS011;50318;54.760;9.408;2022-08-18T02:17:56;50.25;;;33.63;;
64065;SDS011;50318;54.760;9.408;2022-08-18T02:20:22;58.42;;;37.83;;
64065;SDS011;50318;54.760;9.408;2022-08-18T02:22:48;64.38;;;42.78;;
64065;SDS011;50318;54.760;9.408;2022-08-18T02:25:15;68.10;;;43.08;;
64065;SDS011;50318;54.760;9.408;2022-08-18T02:27:42;80.47;;;49.20;;
64065;SDS011;50318;54.760;9.408;2022-08-18T02:30:09;77.13;;;50.13;;
64065;SDS011;50318;54.760;9.408;2022-08-18T02:32:37;76.40;;;48.33;;
64065;SDS011;50318;54.760;9.408;2022-08-18T02:35:04;75.87;;;47.77;;
64065;SDS011;50318;54.760;9.408;2022-08-18T02:37:31;91.07;;;54.70;;
64065;SDS011;50318;54.760;9.408;2022-08-18T02:39:57;88.20;;;54.35;;
64065;SDS011;50318;54.760;9.408;2022-08-18T02:42:23;155.23;;;88.53;;
64065;SDS011;50318;54.760;9.408;2022-08-18T02:44:49;124.03;;;73.13;;
64065;SDS011;50318;54.760;9.408;2022-08-18T02:47:17;92.05;;;56.30;;
64065;SDS011;50318;54.760;9.408;2022-08-18T02:49:44;102.55;;;61.75;;
64065;SDS011;50318;54.760;9.408;2022-08-18T02:52:10;311.55;;;183.18;;
64065;SDS011;50318;54.760;9.408;2022-08-18T02:54:36;251.25;;;140.40;;
64065;SDS011;50318;54.760;9.408;2022-08-18T02:57:05;211.77;;;117.82;;
64065;SDS011;50318;54.760;9.408;2022-08-18T02:59:35;202.45;;;120.75;;
64065;SDS011;50318;54.760;9.408;2022-08-18T03:02:03;223.00;;;134.38;;
64065;SDS011;50318;54.760;9.408;2022-08-18T03:04:31;108.43;;;66.50;;
64065;SDS011;50318;54.760;9.408;2022-08-18T03:06:59;93.82;;;57.17;;
64065;SDS011;50318;54.760;9.408;2022-08-18T03:09:26;107.40;;;61.27;;
64065;SDS011;50318;54.760;9.408;2022-08-18T03:11:53;97.70;;;59.07;;
64065;SDS011;50318;54.760;9.408;2022-08-18T03:14:19;103.63;;;61.37;;
64065;SDS011;50318;54.760;9.408;2022-08-18T03:16:45;181.57;;;104.23;;
64065;SDS011;50318;54.760;9.408;2022-08-18T03:19:13;350.70;;;208.27;;
64065;SDS011;50318;54.760;9.408;2022-08-18T03:21:41;361.90;;;216.45;;
64065;SDS011;50318;54.760;9.408;2022-08-18T03:24:08;293.65;;;167.32;;
64065;SDS011;50318;54.760;9.408;2022-08-18T03:26:34;174.60;;;98.93;;
64065;SDS011;50318;54.760;9.408;2022-08-18T03:29:00;208.60;;;125.23;;
64065;SDS011;50318;54.760;9.408;2022-08-18T03:31:28;290.00;;;165.87;;
64065;SDS011;50318;54.760;9.408;2022-08-18T03:33:56;393.13;;;247.48;;
64065;SDS011;50318;54.760;9.408;2022-08-18T03:36:23;486.57;;;294.83;;
64065;SDS011;50318;54.760;9.408;2022-08-18T03:38:51;433.27;;;274.33;;
64065;SDS011;50318;54.760;9.408;2022-08-18T03:41:19;377.27;;;221.05;;
64065;SDS011;50318;54.760;9.408;2022-08-18T03:43:49;360.48;;;200.27;;
64065;SDS011;50318;54.760;9.408;2022-08-18T03:46:16;218.63;;;128.00;;
64065;SDS011;50318;54.760;9.408;2022-08-18T03:48:44;133.57;;;83.88;;
64065;SDS011;50318;54.760;9.408;2022-08-18T03:51:15;94.55;;;62.08;;
64065;SDS011;50318;54.760;9.408;2022-08-18T03:53:44;89.55;;;58.45;;
64065;SDS011;50318;54.760;9.408;2022-08-18T03:56:12;91.03;;;58.58;;
64065;SDS011;50318;54.760;9.408;2022-08-18T03:58:41;87.97;;;56.27;;
64065;SDS011;50318;54.760;9.408;2022-08-18T04:01:13;84.10;;;55.67;;
64065;SDS011;50318;54.760;9.408;2022-08-18T04:03:44;86.13;;;56.13;;
64065;SDS011;50318;54.760;9.408;2022-08-18T04:06:18;92.13;;;58.75;;
64065;SDS011;50318;54.760;9.408;2022-08-18T04:08:46;92.38;;;58.55;;
64065;SDS011;50318;54.760;9.408;2022-08-18T04:11:14;84.00;;;57.03;;
64065;SDS011;50318;54.760;9.408;2022-08-18T04:13:40;83.67;;;55.77;;
64065;SDS011;50318;54.760;9.408;2022-08-18T04:16:06;81.43;;;53.42;;
64065;SDS011;50318;54.760;9.408;2022-08-18T04:18:32;80.47;;;52.70;;
64065;SDS011;50318;54.760;9.408;2022-08-18T04:21:01;76.17;;;53.13;;
64065;SDS011;50318;54.760;9.408;2022-08-18T04:23:29;80.32;;;54.10;;
64065;SDS011;50318;54.760;9.408;2022-08-18T04:25:56;77.50;;;53.85;;
64065;SDS011;50318;54.760;9.408;2022-08-18T04:28:22;79.87;;;54.23;;
64065;SDS011;50318;54.760;9.408;2022-08-18T04:30:48;81.55;;;53.50;;
64065;SDS011;50318;54.760;9.408;2022-08-18T04:33:14;76.07;;;53.00;;
64065;SDS011;50318;54.760;9.408;2022-08-18T04:35:39;77.20;;;53.40;;
64065;SDS011;50318;54.760;9.408;2022-08-18T04:38:08;78.83;;;53.23;;
64065;SDS011;50318;54.760;9.408;2022-08-18T04:40:35;86.93;;;54.53;;
64065;SDS011;50318;54.760;9.408;2022-08-18T04:43:07;75.38;;;50.95;;
64065;SDS011;50318;54.760;9.408;2022-08-18T04:45:46;88.50;;;55.38;;
64065;SDS011;50318;54.760;9.408;2022-08-18T04:48:12;75.88;;;52.70;;
64065;SDS011;50318;54.760;9.408;2022-08-18T04:50:40;85.10;;;54.37;;
64065;SDS011;50318;54.760;9.408;2022-08-18T04:53:06;80.63;;;53.05;;
64065;SDS011;50318;54.760;9.408;2022-08-18T04:55:52;73.30;;;51.57;;
64065;SDS011;50318;54.760;9.408;2022-08-18T04:58:19;70.95;;;50.05;;
64065;SDS011;50318;54.760;9.408;2022-08-18T05:00:54;67.85;;;49.33;;
64065;SDS011;50318;54.760;9.408;2022-08-18T05:03:21;69.13;;;48.22;;
64065;SDS011;50318;54.760;9.408;2022-08-18T05:05:48;66.37;;;48.53;;
64065;SDS011;50318;54.760;9.408;2022-08-18T05:08:13;69.93;;;49.53;;
64065;SDS011;50318;54.760;9.408;2022-08-18T05:10:39;71.07;;;49.33;;
64065;SDS011;50318;54.760;9.408;2022-08-18T05:13:05;65.18;;;47.65;;
64065;SDS011;50318;54.760;9.408;2022-08-18T05:15:31;71.00;;;50.30;;
64065;SDS011;50318;54.760;9.408;2022-08-18T05:17:57;61.83;;;48.10;;
64065;SDS011;50318;54.760;9.408;2022-08-18T05:20:23;53.30;;;43.23;;
64065;SDS011;50318;54.760;9.408;2022-08-18T05:22:49;57.43;;;43.90;;
64065;SDS011;50318;54.760;9.408;2022-08-18T05:25:15;54.20;;;44.17;;
64065;SDS011;50318;54.760;9.408;2022-08-18T05:27:41;58.53;;;44.47;;
64065;SDS011;50318;54.760;9.408;2022-08-18T05:30:08;57.47;;;43.72;;
64065;SDS011;50318;54.760;9.408;2022-08-18T05:32:39;56.08;;;43.25;;
64065;SDS011;50318;54.760;9.408;2022-08-18T05:35:40;57.13;;;43.67;;
64065;SDS011;50318;54.760;9.408;2022-08-18T05:40:40;54.15;;;43.95;;
64065;SDS011;50318;54.760;9.408;2022-08-18T05:43:07;54.85;;;44.92;;
64065;SDS011;50318;54.760;9.408;2022-08-18T05:45:34;53.20;;;43.15;;
64065;SDS011;50318;54.760;9.408;2022-08-18T05:47:59;52.63;;;42.78;;
64065;SDS011;50318;54.760;9.408;2022-08-18T05:50:26;51.03;;;42.30;;
64065;SDS011;50318;54.760;9.408;2022-08-18T05:53:05;47.97;;;41.33;;
64065;SDS011;50318;54.760;9.408;2022-08-18T05:55:45;51.43;;;41.20;;
64065;SDS011;50318;54.760;9.408;2022-08-18T05:58:36;49.60;;;42.15;;
64065;SDS011;50318;54.760;9.408;2022-08-18T06:01:32;44.22;;;38.88;;
64065;SDS011;50318;54.760;9.408;2022-08-18T06:04:06;44.07;;;39.27;;
64065;SDS011;50318;54.760;9.408;2022-08-18T06:06:40;44.70;;;38.22;;
64065;SDS011;50318;54.760;9.408;2022-08-18T06:11:39;41.60;;;37.15;;
64065;SDS011;50318;54.760;9.408;2022-08-18T06:14:05;40.20;;;36.07;;
64065;SDS011;50318;54.760;9.408;2022-08-18T06:19:31;40.95;;;34.80;;
64065;SDS011;50318;54.760;9.408;2022-08-18T06:22:49;38.35;;;34.13;;
64065;SDS011;50318;54.760;9.408;2022-08-18T06:25:51;36.95;;;32.95;;
64065;SDS011;50318;54.760;9.408;2022-08-18T06:35:49;31.58;;;28.08;;
64065;SDS011;50318;54.760;9.408;2022-08-18T06:44:03;33.63;;;30.05;;
64065;SDS011;50318;54.760;9.408;2022-08-18T06:46:45;34.47;;;30.70;;
64065;SDS011;50318;54.760;9.408;2022-08-18T06:49:28;34.10;;;29.90;;
64065;SDS011;50318;54.760;9.408;2022-08-18T06:54:47;34.47;;;30.70;;
64065;SDS011;50318;54.760;9.408;2022-08-18T06:57:21;32.40;;;29.00;;
64065;SDS011;50318;54.760;9.408;2022-08-18T07:00:04;33.63;;;30.05;;
64065;SDS011;50318;54.760;9.408;2022-08-18T07:02:39;31.40;;;28.15;;
64065;SDS011;50318;54.760;9.408;2022-08-18T07:07:41;30.95;;;27.63;;
64065;SDS011;50318;54.760;9.408;2022-08-18T07:12:39;30.58;;;27.25;;
64065;SDS011;50318;54.760;9.408;2022-08-18T07:15:05;30.52;;;27.45;;
64065;SDS011;50318;54.760;9.408;2022-08-18T07:17:35;31.00;;;27.70;;
64065;SDS011;50318;54.760;9.408;2022-08-18T07:20:06;30.43;;;27.17;;
64065;SDS011;50318;54.760;9.408;2022-08-18T07:25:25;29.17;;;26.27;;
64065;SDS011;50318;54.760;9.408;2022-08-18T07:27:54;29.58;;;26.45;;
64065;SDS011;50318;54.760;9.408;2022-08-18T07:36:02;26.10;;;23.47;;
64065;SDS011;50318;54.760;9.408;2022-08-18T07:41:02;24.85;;;22.30;;
64065;SDS011;50318;54.760;9.408;2022-08-18T07:43:38;24.30;;;21.70;;
64065;SDS011;50318;54.760;9.408;2022-08-18T07:46:45;25.40;;;22.70;;
64065;SDS011;50318;54.760;9.408;2022-08-18T07:49:20;24.65;;;22.05;;
64065;SDS011;50318;54.760;9.408;2022-08-18T07:51:58;23.88;;;21.20;;
64065;SDS011;50318;54.760;9.408;2022-08-18T07:54:42;23.55;;;21.15;;
64065;SDS011;50318;54.760;9.408;2022-08-18T07:57:26;25.02;;;22.33;;
64065;SDS011;50318;54.760;9.408;2022-08-18T08:03:09;24.88;;;22.17;;
64065;SDS011;50318;54.760;9.408;2022-08-18T08:14:29;25.80;;;20.75;;
64065;SDS011;50318;54.760;9.408;2022-08-18T08:28:35;21.77;;;19.50;;
64065;SDS011;50318;54.760;9.408;2022-08-18T08:30:51;22.23;;;19.80;;
64065;SDS011;50318;54.760;9.408;2022-08-18T08:33:40;21.63;;;19.33;;
64065;SDS011;50318;54.760;9.408;2022-08-18T08:36:13;22.00;;;19.40;;
64065;SDS011;50318;54.760;9.408;2022-08-18T08:39:00;21.20;;;19.00;;
64065;SDS011;50318;54.760;9.408;2022-08-18T08:46:36;21.00;;;18.30;;
64065;SDS011;50318;54.760;9.408;2022-08-18T08:49:29;20.07;;;17.20;;
64065;SDS011;50318;54.760;9.408;2022-08-18T08:52:01;18.63;;;16.73;;
64065;SDS011;50318;54.760;9.408;2022-08-18T08:57:08;17.70;;;15.43;;
64065;SDS011;50318;54.760;9.408;2022-08-18T08:59:35;16.77;;;15.02;;
64065;SDS011;50318;54.760;9.408;2022-08-18T09:25:08;16.70;;;14.50;;
64065;SDS011;50318;54.760;9.408;2022-08-18T09:28:05;15.20;;;13.60;;
64065;SDS011;50318;54.760;9.408;2022-08-18T09:33:34;15.23;;;13.50;;
64065;SDS011;50318;54.760;9.408;2022-08-18T09:39:33;15.40;;;12.88;;
64065;SDS011;50318;54.760;9.408;2022-08-18T09:43:04;14.25;;;12.75;;
64065;SDS011;50318;54.760;9.408;2022-08-18T09:46:02;14.43;;;12.93;;
64065;SDS011;50318;54.760;9.408;2022-08-18T09:48:26;14.65;;;12.63;;
64065;SDS011;50318;54.760;9.408;2022-08-18T09:50:57;14.13;;;12.63;;
64065;SDS011;50318;54.760;9.408;2022-08-18T10:07:39;17.25;;;14.45;;
64065;SDS011;50318;54.760;9.408;2022-08-18T10:12:58;16.17;;;14.45;;
64065;SDS011;50318;54.760;9.408;2022-08-18T10:15:57;16.38;;;14.00;;
64065;SDS011;50318;54.760;9.408;2022-08-18T10:21:29;15.27;;;13.75;;
64065;SDS011;50318;54.760;9.408;2022-08-18T10:27:01;14.80;;;12.30;;
64065;SDS011;50318;54.760;9.408;2022-08-18T10:34:45;16.38;;;13.00;;
64065;SDS011;50318;54.760;9.408;2022-08-18T10:42:33;13.13;;;11.00;;
64065;SDS011;50318;54.760;9.408;2022-08-18T10:45:23;13.52;;;11.77;;
64065;SDS011;50318;54.760;9.408;2022-08-18T10:50:36;15.07;;;10.70;;
64065;SDS011;50318;54.760;9.408;2022-08-18T10:55:49;12.15;;;10.98;;
64065;SDS011;50318;54.760;9.408;2022-08-18T11:06:42;12.27;;;10.90;;
64065;SDS011;50318;54.760;9.408;2022-08-18T11:09:15;12.13;;;11.00;;
64065;SDS011;50318;54.760;9.408;2022-08-18T11:11:50;14.07;;;11.33;;
64065;SDS011;50318;54.760;9.408;2022-08-18T11:19:55;11.23;;;10.02;;
64065;SDS011;50318;54.760;9.408;2022-08-18T11:25:33;12.43;;;11.20;;
64065;SDS011;50318;54.760;9.408;2022-08-18T11:28:01;12.97;;;11.50;;
64065;SDS011;50318;54.760;9.408;2022-08-18T11:30:32;13.65;;;12.10;;
64065;SDS011;50318;54.760;9.408;2022-08-18T11:33:02;12.85;;;11.55;;
64065;SDS011;50318;54.760;9.408;2022-08-18T11:35:30;13.73;;;11.82;;
64065;SDS011;50318;54.760;9.408;2022-08-18T11:37:59;12.30;;;11.10;;
64065;SDS011;50318;54.760;9.408;2022-08-18T11:40:37;13.20;;;11.80;;
64065;SDS011;50318;54.760;9.408;2022-08-18T12:01:09;24.17;;;21.80;;
64065;SDS011;50318;54.760;9.408;2022-08-18T12:03:44;45.65;;;40.75;;
64065;SDS011;50318;54.760;9.408;2022-08-18T12:06:20;37.40;;;33.60;;
64065;SDS011;50318;54.760;9.408;2022-08-18T12:11:26;43.30;;;38.45;;
64065;SDS011;50318;54.760;9.408;2022-08-18T12:14:03;36.47;;;32.92;;
64065;SDS011;50318;54.760;9.408;2022-08-18T12:17:06;28.48;;;25.60;;
64065;SDS011;50318;54.760;9.408;2022-08-18T12:19:32;41.55;;;37.33;;
64065;SDS011;50318;54.760;9.408;2022-08-18T12:21:58;48.20;;;43.00;;
64065;SDS011;50318;54.760;9.408;2022-08-18T12:24:28;46.63;;;41.65;;
64065;SDS011;50318;54.760;9.408;2022-08-18T12:26:56;42.83;;;38.42;;
64065;SDS011;50318;54.760;9.408;2022-08-18T12:29:23;40.00;;;35.92;;
64065;SDS011;50318;54.760;9.408;2022-08-18T12:31:50;31.20;;;28.17;;
64065;SDS011;50318;54.760;9.408;2022-08-18T12:34:21;31.70;;;28.70;;
64065;SDS011;50318;54.760;9.408;2022-08-18T12:36:49;29.40;;;26.42;;
64065;SDS011;50318;54.760;9.408;2022-08-18T12:39:17;23.52;;;21.33;;
64065;SDS011;50318;54.760;9.408;2022-08-18T12:41:45;25.65;;;23.13;;
64065;SDS011;50318;54.760;9.408;2022-08-18T12:44:11;24.23;;;22.02;;
64065;SDS011;50318;54.760;9.408;2022-08-18T12:46:37;22.80;;;20.50;;
64065;SDS011;50318;54.760;9.408;2022-08-18T12:49:04;23.23;;;21.03;;
64065;SDS011;50318;54.760;9.408;2022-08-18T12:51:34;23.67;;;21.27;;
64065;SDS011;50318;54.760;9.408;2022-08-18T12:54:00;24.57;;;22.17;;
64065;SDS011;50318;54.760;9.408;2022-08-18T12:56:29;22.45;;;20.17;;
64065;SDS011;50318;54.760;9.408;2022-08-18T12:58:59;24.13;;;21.48;;
64065;SDS011;50318;54.760;9.408;2022-08-18T13:01:27;23.67;;;21.30;;
64065;SDS011;50318;54.760;9.408;2022-08-18T13:03:53;19.67;;;17.65;;
64065;SDS011;50318;54.760;9.408;2022-08-18T13:06:23;19.17;;;17.17;;
64065;SDS011;50318;54.760;9.408;2022-08-18T13:08:50;18.77;;;16.77;;
64065;SDS011;50318;54.760;9.408;2022-08-18T13:11:22;19.52;;;17.63;;
64065;SDS011;50318;54.760;9.408;2022-08-18T13:13:48;20.27;;;18.27;;
64065;SDS011;50318;54.760;9.408;2022-08-18T13:16:14;19.42;;;17.60;;
64065;SDS011;50318;54.760;9.408;2022-08-18T13:19:01;20.17;;;18.17;;
64065;SDS011;50318;54.760;9.408;2022-08-18T13:21:28;19.73;;;17.48;;
64065;SDS011;50318;54.760;9.408;2022-08-18T13:23:54;19.10;;;17.17;;
64065;SDS011;50318;54.760;9.408;2022-08-18T13:26:27;18.52;;;16.73;;
64065;SDS011;50318;54.760;9.408;2022-08-18T13:28:54;17.67;;;15.88;;
64065;SDS011;50318;54.760;9.408;2022-08-18T13:31:20;18.47;;;16.67;;
64065;SDS011;50318;54.760;9.408;2022-08-18T13:33:46;17.97;;;15.73;;
64065;SDS011;50318;54.760;9.408;2022-08-18T13:36:11;19.38;;;17.30;;
64065;SDS011;50318;54.760;9.408;2022-08-18T13:38:37;18.73;;;16.73;;
64065;SDS011;50318;54.760;9.408;2022-08-18T13:41:05;18.77;;;16.77;;
64065;SDS011;50318;54.760;9.408;2022-08-18T13:43:36;18.42;;;16.52;;
64065;SDS011;50318;54.760;9.408;2022-08-18T13:46:06;20.17;;;17.00;;
64065;SDS011;50318;54.760;9.408;2022-08-18T13:48:33;18.98;;;16.48;;
64065;SDS011;50318;54.760;9.408;2022-08-18T13:50:59;18.77;;;16.20;;
64065;SDS011;50318;54.760;9.408;2022-08-18T13:53:26;17.88;;;16.02;;
64065;SDS011;50318;54.760;9.408;2022-08-18T13:55:54;19.02;;;16.92;;
64065;SDS011;50318;54.760;9.408;2022-08-18T13:58:32;19.35;;;17.20;;
64065;SDS011;50318;54.760;9.408;2022-08-18T14:01:00;18.88;;;16.88;;
64065;SDS011;50318;54.760;9.408;2022-08-18T14:03:28;19.40;;;17.40;;
64065;SDS011;50318;54.760;9.408;2022-08-18T14:05:55;20.03;;;17.97;;
64065;SDS011;50318;54.760;9.408;2022-08-18T14:08:24;19.70;;;17.70;;
64065;SDS011;50318;54.760;9.408;2022-08-18T14:10:55;20.20;;;17.57;;
64065;SDS011;50318;54.760;9.408;2022-08-18T14:13:23;19.00;;;16.83;;
64065;SDS011;50318;54.760;9.408;2022-08-18T14:15:51;21.60;;;18.30;;
64065;SDS011;50318;54.760;9.408;2022-08-18T14:18:18;21.77;;;18.13;;
64065;SDS011;50318;54.760;9.408;2022-08-18T14:20:43;21.50;;;17.40;;
64065;SDS011;50318;54.760;9.408;2022-08-18T14:23:28;19.17;;;17.02;;
64065;SDS011;50318;54.760;9.408;2022-08-18T14:26:12;20.13;;;17.88;;
64065;SDS011;50318;54.760;9.408;2022-08-18T14:28:56;20.35;;;17.33;;
64065;SDS011;50318;54.760;9.408;2022-08-18T14:31:22;19.00;;;17.00;;
64065;SDS011;50318;54.760;9.408;2022-08-18T14:33:48;19.13;;;17.10;;
64065;SDS011;50318;54.760;9.408;2022-08-18T14:36:14;19.90;;;16.83;;
64065;SDS011;50318;54.760;9.408;2022-08-18T14:38:40;18.98;;;16.98;;
64065;SDS011;50318;54.760;9.408;2022-08-18T14:41:06;17.95;;;16.05;;
64065;SDS011;50318;54.760;9.408;2022-08-18T14:43:35;21.27;;;16.77;;
64065;SDS011;50318;54.760;9.408;2022-08-18T14:46:01;19.55;;;17.50;;
64065;SDS011;50318;54.760;9.408;2022-08-18T14:48:29;18.52;;;16.63;;
64065;SDS011;50318;54.760;9.408;2022-08-18T14:50:56;17.77;;;15.88;;
64065;SDS011;50318;54.760;9.408;2022-08-18T14:53:25;18.45;;;16.48;;
64065;SDS011;50318;54.760;9.408;2022-08-18T14:55:53;17.70;;;15.80;;
64065;SDS011;50318;54.760;9.408;2022-08-18T14:58:21;17.20;;;15.35;;
64065;SDS011;50318;54.760;9.408;2022-08-18T15:00:53;16.38;;;13.90;;
64065;SDS011;50318;54.760;9.408;2022-08-18T15:03:23;15.83;;;14.13;;
64065;SDS011;50318;54.760;9.408;2022-08-18T15:05:53;15.80;;;14.07;;
64065;SDS011;50318;54.760;9.408;2022-08-18T15:08:19;17.38;;;14.18;;
64065;SDS011;50318;54.760;9.408;2022-08-18T15:10:45;16.90;;;14.30;;
64065;SDS011;50318;54.760;9.408;2022-08-18T15:13:12;16.13;;;13.70;;
64065;SDS011;50318;54.760;9.408;2022-08-18T15:15:37;16.70;;;14.25;;
64065;SDS011;50318;54.760;9.408;2022-08-18T15:18:03;15.73;;;13.48;;
64065;SDS011;50318;54.760;9.408;2022-08-18T15:20:30;15.53;;;13.30;;
64065;SDS011;50318;54.760;9.408;2022-08-18T15:22:59;14.90;;;12.50;;
64065;SDS011;50318;54.760;9.408;2022-08-18T15:25:45;16.27;;;12.40;;
64065;SDS011;50318;54.760;9.408;2022-08-18T15:28:17;15.87;;;13.07;;
64065;SDS011;50318;54.760;9.408;2022-08-18T15:30:45;16.77;;;13.50;;
64065;SDS011;50318;54.760;9.408;2022-08-18T15:33:13;17.35;;;13.95;;
64065;SDS011;50318;54.760;9.408;2022-08-18T15:35:40;15.90;;;13.77;;
64065;SDS011;50318;54.760;9.408;2022-08-18T15:38:07;15.87;;;14.20;;
64065;SDS011;50318;54.760;9.408;2022-08-18T15:40:37;15.63;;;13.97;;
64065;SDS011;50318;54.760;9.408;2022-08-18T15:43:10;16.52;;;13.70;;
64065;SDS011;50318;54.760;9.408;2022-08-18T15:45:37;15.27;;;13.70;;
64065;SDS011;50318;54.760;9.408;2022-08-18T15:48:15;16.17;;;14.15;;
64065;SDS011;50318;54.760;9.408;2022-08-18T15:50:43;16.88;;;14.27;;
64065;SDS011;50318;54.760;9.408;2022-08-18T15:53:13;15.65;;;13.82;;
64065;SDS011;50318;54.760;9.408;2022-08-18T15:55:41;16.50;;;14.27;;
64065;SDS011;50318;54.760;9.408;2022-08-18T15:58:08;15.63;;;14.02;;
64065;SDS011;50318;54.760;9.408;2022-08-18T16:00:35;16.63;;;14.33;;
64065;SDS011;50318;54.760;9.408;2022-08-18T16:03:04;16.45;;;13.68;;
64065;SDS011;50318;54.760;9.408;2022-08-18T16:05:32;16.03;;;13.93;;
64065;SDS011;50318;54.760;9.408;2022-08-18T16:08:24;18.25;;;14.80;;
64065;SDS011;50318;54.760;9.408;2022-08-18T16:10:50;16.03;;;14.10;;
64065;SDS011;50318;54.760;9.408;2022-08-18T16:13:17;16.25;;;14.35;;
64065;SDS011;50318;54.760;9.408;2022-08-18T16:15:43;15.52;;;13.35;;
64065;SDS011;50318;54.760;9.408;2022-08-18T16:18:12;18.55;;;13.82;;
64065;SDS011;50318;54.760;9.408;2022-08-18T16:20:39;16.70;;;14.77;;
64065;SDS011;50318;54.760;9.408;2022-08-18T16:23:05;20.70;;;18.50;;
64065;SDS011;50318;54.760;9.408;2022-08-18T16:25:31;20.33;;;18.05;;
64065;SDS011;50318;54.760;9.408;2022-08-18T16:27:58;21.85;;;19.55;;
64065;SDS011;50318;54.760;9.408;2022-08-18T16:30:25;27.77;;;22.58;;
64065;SDS011;50318;54.760;9.408;2022-08-18T16:32:52;26.83;;;23.92;;
64065;SDS011;50318;54.760;9.408;2022-08-18T16:35:18;29.88;;;24.40;;
64065;SDS011;50318;54.760;9.408;2022-08-18T16:37:45;31.02;;;26.42;;
64065;SDS011;50318;54.760;9.408;2022-08-18T16:40:15;30.95;;;27.65;;
64065;SDS011;50318;54.760;9.408;2022-08-18T16:42:42;31.10;;;27.90;;
64065;SDS011;50318;54.760;9.408;2022-08-18T16:45:08;30.58;;;27.48;;
64065;SDS011;50318;54.760;9.408;2022-08-18T16:47:35;31.27;;;27.57;;
64065;SDS011;50318;54.760;9.408;2022-08-18T16:50:06;30.35;;;27.20;;
64065;SDS011;50318;54.760;9.408;2022-08-18T16:52:34;32.22;;;28.85;;
64065;SDS011;50318;54.760;9.408;2022-08-18T16:55:00;32.37;;;28.73;;
64065;SDS011;50318;54.760;9.408;2022-08-18T16:57:27;29.85;;;26.65;;
64065;SDS011;50318;54.760;9.408;2022-08-18T17:00:11;30.83;;;26.43;;
64065;SDS011;50318;54.760;9.408;2022-08-18T17:02:55;29.75;;;26.55;;
64065;SDS011;50318;54.760;9.408;2022-08-18T17:05:40;30.23;;;27.08;;
64065;SDS011;50318;54.760;9.408;2022-08-18T17:08:05;29.93;;;26.83;;
64065;SDS011;50318;54.760;9.408;2022-08-18T17:10:31;29.70;;;26.80;;
64065;SDS011;50318;54.760;9.408;2022-08-18T17:13:03;30.67;;;27.00;;
64065;SDS011;50318;54.760;9.408;2022-08-18T17:15:29;28.42;;;25.25;;
64065;SDS011;50318;54.760;9.408;2022-08-18T17:17:56;28.92;;;25.80;;
64065;SDS011;50318;54.760;9.408;2022-08-18T17:20:21;32.63;;;29.13;;
64065;SDS011;50318;54.760;9.408;2022-08-18T17:22:47;32.03;;;28.73;;
64065;SDS011;50318;54.760;9.408;2022-08-18T17:25:15;33.28;;;29.67;;
64065;SDS011;50318;54.760;9.408;2022-08-18T17:27:46;33.20;;;29.65;;
64065;SDS011;50318;54.760;9.408;2022-08-18T17:30:14;32.85;;;29.45;;
64065;SDS011;50318;54.760;9.408;2022-08-18T17:32:49;32.67;;;29.13;;
64065;SDS011;50318;54.760;9.408;2022-08-18T17:38:02;43.20;;;38.30;;
64065;SDS011;50318;54.760;9.408;2022-08-18T17:40:32;36.13;;;32.30;;
64065;SDS011;50318;54.760;9.408;2022-08-18T17:43:04;35.83;;;31.92;;
64065;SDS011;50318;54.760;9.408;2022-08-18T17:45:35;36.22;;;32.55;;